sensor_id;sensor_type;location;lat;lon;timestamp;pressure;altitude;pressure_sealevel;temperature;humidity
10135;BME280;5107;48.850;8.924;2024-01-30T00:05:09;98023.03;;;5.56;67.04
10135;BME280;5107;48.850;8.924;2024-01-30T00:14:41;98034.72;;;5.25;67.33
10135;BME280;5107;48.850;8.924;2024-01-30T00:41:25;98031.25;;;6.24;63.89
10135;BME280;5107;48.850;8.924;2024-01-30T00:47:58;98031.25;;;5.62;66.11
10135;BME280;5107;48.850;8.924;2024-01-30T01:08:03;98038.34;;;4.97;69.54
10135;BME280;5107;48.850;8.924;2024-01-30T01:14:32;98040.88;;;5.24;68.02
10135;BME280;5107;48.850;8.924;2024-01-30T01:27:19;98035.75;;;5.22;66.77
10135;BME280;5107;48.850;8.924;2024-01-30T01:29:46;98034.28;;;5.06;67.30
10135;BME280;5107;48.850;8.924;2024-01-30T01:32:11;98036.66;;;4.83;68.75
10135;BME280;5107;48.850;8.924;2024-01-30T01:34:36;98040.28;;;4.68;68.88
10135;BME280;5107;48.850;8.924;2024-01-30T01:37:02;98029.50;;;4.60;69.43
10135;BME280;5107;48.850;8.924;2024-01-30T01:39:27;98036.88;;;4.53;69.88
10135;BME280;5107;48.850;8.924;2024-01-30T01:41:52;98032.72;;;4.51;70.38
10135;BME280;5107;48.850;8.924;2024-01-30T01:44:18;98033.84;;;4.47;70.85
10135;BME280;5107;48.850;8.924;2024-01-30T01:46:44;98029.88;;;4.41;70.74
10135;BME280;5107;48.850;8.924;2024-01-30T01:49:10;98028.28;;;4.39;70.97
10135;BME280;5107;48.850;8.924;2024-01-30T01:51:36;98028.47;;;4.36;71.46
10135;BME280;5107;48.850;8.924;2024-01-30T01:54:04;98022.88;;;4.42;71.89
10135;BME280;5107;48.850;8.924;2024-01-30T01:56:33;98026.75;;;4.49;72.18
10135;BME280;5107;48.850;8.924;2024-01-30T01:59:00;98023.00;;;4.53;71.15
10135;BME280;5107;48.850;8.924;2024-01-30T02:01:30;98029.38;;;4.49;71.34
10135;BME280;5107;48.850;8.924;2024-01-30T02:03:56;98027.72;;;4.61;71.11
10135;BME280;5107;48.850;8.924;2024-01-30T02:06:21;98025.81;;;4.50;70.58
10135;BME280;5107;48.850;8.924;2024-01-30T02:08:46;98028.19;;;4.40;71.70
10135;BME280;5107;48.850;8.924;2024-01-30T02:11:12;98033.97;;;4.31;71.27
10135;BME280;5107;48.850;8.924;2024-01-30T02:13:38;98033.34;;;4.28;71.52
10135;BME280;5107;48.850;8.924;2024-01-30T02:16:03;98035.41;;;4.23;71.50
10135;BME280;5107;48.850;8.924;2024-01-30T02:18:29;98029.84;;;4.14;71.23
10135;BME280;5107;48.850;8.924;2024-01-30T02:20:58;98034.88;;;4.03;71.62
10135;BME280;5107;48.850;8.924;2024-01-30T02:23:27;98040.50;;;3.97;72.35
10135;BME280;5107;48.850;8.924;2024-01-30T02:25:52;98040.03;;;3.91;72.85
10135;BME280;5107;48.850;8.924;2024-01-30T02:28:18;98035.31;;;3.83;73.34
10135;BME280;5107;48.850;8.924;2024-01-30T02:30:44;98039.94;;;3.92;73.77
10135;BME280;5107;48.850;8.924;2024-01-30T02:33:09;98038.97;;;4.07;73.75
10135;BME280;5107;48.850;8.924;2024-01-30T02:35:35;98036.72;;;4.69;70.84
10135;BME280;5107;48.850;8.924;2024-01-30T02:38:00;98038.00;;;4.76;70.70
10135;BME280;5107;48.850;8.924;2024-01-30T02:40:26;98042.53;;;4.60;70.61
10135;BME280;5107;48.850;8.924;2024-01-30T02:42:51;98037.19;;;4.49;70.47
10135;BME280;5107;48.850;8.924;2024-01-30T02:45:16;98038.25;;;4.32;71.61
10135;BME280;5107;48.850;8.924;2024-01-30T02:47:42;98034.47;;;4.24;72.37
10135;BME280;5107;48.850;8.924;2024-01-30T02:50:08;98045.78;;;4.10;72.24
10135;BME280;5107;48.850;8.924;2024-01-30T02:52:33;98043.75;;;3.87;73.09
10135;BME280;5107;48.850;8.924;2024-01-30T02:54:59;98042.53;;;3.78;73.47
10135;BME280;5107;48.850;8.924;2024-01-30T02:57:24;98038.66;;;3.71;73.59
10135;BME280;5107;48.850;8.924;2024-01-30T02:59:50;98035.59;;;3.64;74.61
10135;BME280;5107;48.850;8.924;2024-01-30T03:02:15;98037.44;;;3.62;74.71
10135;BME280;5107;48.850;8.924;2024-01-30T03:04:41;98036.06;;;3.71;73.83
10135;BME280;5107;48.850;8.924;2024-01-30T03:07:07;98034.75;;;3.78;73.17
10135;BME280;5107;48.850;8.924;2024-01-30T03:09:32;98037.72;;;3.72;73.86
10135;BME280;5107;48.850;8.924;2024-01-30T03:11:57;98031.06;;;3.68;74.43
10135;BME280;5107;48.850;8.924;2024-01-30T03:14:23;98029.56;;;3.50;74.59
10135;BME280;5107;48.850;8.924;2024-01-30T03:16:48;98033.66;;;3.39;74.86
10135;BME280;5107;48.850;8.924;2024-01-30T03:19:13;98026.88;;;3.37;74.59
10135;BME280;5107;48.850;8.924;2024-01-30T03:21:39;98037.25;;;3.37;75.00
10135;BME280;5107;48.850;8.924;2024-01-30T03:24:04;98033.66;;;3.39;75.00
10135;BME280;5107;48.850;8.924;2024-01-30T03:26:30;98031.53;;;3.32;75.48
10135;BME280;5107;48.850;8.924;2024-01-30T03:28:55;98031.41;;;3.62;76.25
10135;BME280;5107;48.850;8.924;2024-01-30T03:31:20;98032.03;;;3.94;74.88
10135;BME280;5107;48.850;8.924;2024-01-30T03:33:46;98031.66;;;3.86;75.14
10135;BME280;5107;48.850;8.924;2024-01-30T03:36:11;98032.63;;;3.85;75.40
10135;BME280;5107;48.850;8.924;2024-01-30T03:38:36;98029.19;;;3.84;74.55
10135;BME280;5107;48.850;8.924;2024-01-30T03:41:02;98028.59;;;3.79;74.10
10135;BME280;5107;48.850;8.924;2024-01-30T03:43:27;98032.69;;;3.69;74.19
10135;BME280;5107;48.850;8.924;2024-01-30T03:45:53;98027.72;;;3.66;75.12
10135;BME280;5107;48.850;8.924;2024-01-30T03:48:19;98029.91;;;3.86;74.66
10135;BME280;5107;48.850;8.924;2024-01-30T03:50:45;98028.03;;;3.88;75.00
10135;BME280;5107;48.850;8.924;2024-01-30T03:53:10;98025.63;;;3.85;74.81
10135;BME280;5107;48.850;8.924;2024-01-30T03:55:35;98034.72;;;4.06;74.00
10135;BME280;5107;48.850;8.924;2024-01-30T03:58:01;98030.44;;;4.05;72.55
10135;BME280;5107;48.850;8.924;2024-01-30T04:00:26;98037.44;;;3.91;73.36
10135;BME280;5107;48.850;8.924;2024-01-30T04:02:52;98041.16;;;3.87;73.51
10135;BME280;5107;48.850;8.924;2024-01-30T04:05:17;98037.00;;;4.25;72.30
10135;BME280;5107;48.850;8.924;2024-01-30T04:07:42;98036.94;;;4.66;69.99
10135;BME280;5107;48.850;8.924;2024-01-30T04:10:09;98030.50;;;4.84;68.84
10135;BME280;5107;48.850;8.924;2024-01-30T04:12:35;98022.81;;;5.08;68.36
10135;BME280;5107;48.850;8.924;2024-01-30T04:15:02;98019.88;;;5.13;67.82
10135;BME280;5107;48.850;8.924;2024-01-30T04:17:28;98021.59;;;5.26;67.21
10135;BME280;5107;48.850;8.924;2024-01-30T04:19:54;98018.44;;;5.34;67.14
10135;BME280;5107;48.850;8.924;2024-01-30T04:22:20;98023.44;;;5.37;66.66
10135;BME280;5107;48.850;8.924;2024-01-30T04:24:45;98016.22;;;5.28;66.87
10135;BME280;5107;48.850;8.924;2024-01-30T04:27:10;98020.84;;;5.37;66.74
10135;BME280;5107;48.850;8.924;2024-01-30T04:29:35;98017.09;;;5.16;67.32
10135;BME280;5107;48.850;8.924;2024-01-30T04:32:01;98022.41;;;5.02;67.87
10135;BME280;5107;48.850;8.924;2024-01-30T04:34:26;98024.22;;;4.74;68.21
10135;BME280;5107;48.850;8.924;2024-01-30T04:36:51;98026.13;;;4.85;69.06
10135;BME280;5107;48.850;8.924;2024-01-30T04:39:17;98017.59;;;5.08;68.20
10135;BME280;5107;48.850;8.924;2024-01-30T04:41:42;98015.91;;;5.20;67.89
10135;BME280;5107;48.850;8.924;2024-01-30T04:44:07;98023.84;;;5.06;67.43
10135;BME280;5107;48.850;8.924;2024-01-30T04:46:33;98024.69;;;4.93;68.95
10135;BME280;5107;48.850;8.924;2024-01-30T04:48:59;98023.06;;;4.78;68.66
10135;BME280;5107;48.850;8.924;2024-01-30T04:51:25;98023.41;;;4.86;69.18
10135;BME280;5107;48.850;8.924;2024-01-30T04:53:50;98017.59;;;5.08;67.22
10135;BME280;5107;48.850;8.924;2024-01-30T04:56:15;98021.84;;;4.96;67.77
10135;BME280;5107;48.850;8.924;2024-01-30T04:58:41;98033.50;;;4.78;68.32
10135;BME280;5107;48.850;8.924;2024-01-30T05:01:06;98027.88;;;4.45;68.46
10135;BME280;5107;48.850;8.924;2024-01-30T05:03:35;98024.25;;;4.20;70.01
10135;BME280;5107;48.850;8.924;2024-01-30T05:06:00;98029.53;;;3.92;70.50
10135;BME280;5107;48.850;8.924;2024-01-30T05:08:26;98034.19;;;3.73;72.27
10135;BME280;5107;48.850;8.924;2024-01-30T05:10:51;98034.75;;;3.64;72.77
10135;BME280;5107;48.850;8.924;2024-01-30T05:13:17;98031.59;;;3.44;72.77
10135;BME280;5107;48.850;8.924;2024-01-30T05:15:42;98031.13;;;3.38;73.17
10135;BME280;5107;48.850;8.924;2024-01-30T05:18:07;98033.44;;;3.28;74.08
10135;BME280;5107;48.850;8.924;2024-01-30T05:20:33;98030.22;;;3.39;74.31
10135;BME280;5107;48.850;8.924;2024-01-30T05:22:58;98028.72;;;3.49;74.68
10135;BME280;5107;48.850;8.924;2024-01-30T05:25:23;98036.72;;;3.46;75.68
10135;BME280;5107;48.850;8.924;2024-01-30T05:27:49;98036.41;;;3.79;73.50
10135;BME280;5107;48.850;8.924;2024-01-30T05:30:15;98036.31;;;3.80;73.65
10135;BME280;5107;48.850;8.924;2024-01-30T05:32:40;98039.34;;;4.15;72.42
10135;BME280;5107;48.850;8.924;2024-01-30T05:35:05;98030.47;;;4.45;71.64
10135;BME280;5107;48.850;8.924;2024-01-30T05:37:33;98032.03;;;4.74;69.64
10135;BME280;5107;48.850;8.924;2024-01-30T05:39:58;98038.34;;;4.97;68.77
10135;BME280;5107;48.850;8.924;2024-01-30T05:42:23;98036.69;;;5.09;68.82
10135;BME280;5107;48.850;8.924;2024-01-30T05:44:49;98039.63;;;5.17;67.85
10135;BME280;5107;48.850;8.924;2024-01-30T05:47:14;98046.50;;;5.30;67.54
10135;BME280;5107;48.850;8.924;2024-01-30T05:49:41;98044.75;;;5.31;66.93
10135;BME280;5107;48.850;8.924;2024-01-30T05:52:07;98044.72;;;5.06;66.22
10135;BME280;5107;48.850;8.924;2024-01-30T05:54:32;98054.91;;;4.96;68.24
10135;BME280;5107;48.850;8.924;2024-01-30T05:56:57;98055.50;;;4.74;69.29
10135;BME280;5107;48.850;8.924;2024-01-30T05:59:23;98047.88;;;4.44;68.60
10135;BME280;5107;48.850;8.924;2024-01-30T06:01:48;98055.16;;;4.12;69.68
10135;BME280;5107;48.850;8.924;2024-01-30T06:04:14;98044.59;;;3.87;70.62
10135;BME280;5107;48.850;8.924;2024-01-30T06:06:40;98053.69;;;3.94;72.05
10135;BME280;5107;48.850;8.924;2024-01-30T06:09:06;98054.22;;;4.13;72.31
10135;BME280;5107;48.850;8.924;2024-01-30T06:11:34;98051.06;;;4.49;70.54
10135;BME280;5107;48.850;8.924;2024-01-30T06:13:59;98045.22;;;5.11;74.96
10135;BME280;5107;48.850;8.924;2024-01-30T06:16:24;98048.91;;;5.21;75.79
10135;BME280;5107;48.850;8.924;2024-01-30T06:18:54;98047.41;;;4.91;71.49
10135;BME280;5107;48.850;8.924;2024-01-30T06:21:19;98046.53;;;4.78;71.09
10135;BME280;5107;48.850;8.924;2024-01-30T06:23:45;98061.13;;;4.68;70.40
10135;BME280;5107;48.850;8.924;2024-01-30T06:26:10;98057.13;;;4.63;71.08
10135;BME280;5107;48.850;8.924;2024-01-30T06:28:35;98051.16;;;4.61;70.81
10135;BME280;5107;48.850;8.924;2024-01-30T06:31:01;98063.59;;;4.70;70.24
10135;BME280;5107;48.850;8.924;2024-01-30T06:33:29;98059.22;;;4.70;70.14
10135;BME280;5107;48.850;8.924;2024-01-30T06:35:54;98055.34;;;4.63;71.20
10135;BME280;5107;48.850;8.924;2024-01-30T06:38:20;98055.66;;;4.58;71.45
10135;BME280;5107;48.850;8.924;2024-01-30T06:40:45;98057.47;;;5.10;77.26
10135;BME280;5107;48.850;8.924;2024-01-30T06:43:10;98060.63;;;4.76;73.07
10135;BME280;5107;48.850;8.924;2024-01-30T06:45:36;98061.56;;;4.48;73.26
10135;BME280;5107;48.850;8.924;2024-01-30T06:48:02;98056.97;;;4.78;70.25
10135;BME280;5107;48.850;8.924;2024-01-30T06:50:28;98058.84;;;4.76;70.69
10135;BME280;5107;48.850;8.924;2024-01-30T06:52:53;98063.09;;;4.65;71.29
10135;BME280;5107;48.850;8.924;2024-01-30T06:55:18;98063.44;;;4.46;72.71
10135;BME280;5107;48.850;8.924;2024-01-30T06:57:43;98069.97;;;4.39;72.86
10135;BME280;5107;48.850;8.924;2024-01-30T07:00:09;98065.56;;;4.27;72.81
10135;BME280;5107;48.850;8.924;2024-01-30T07:02:35;98064.94;;;4.36;73.31
10135;BME280;5107;48.850;8.924;2024-01-30T07:05:00;98066.00;;;4.60;71.73
10135;BME280;5107;48.850;8.924;2024-01-30T07:07:25;98063.00;;;4.66;72.33
10135;BME280;5107;48.850;8.924;2024-01-30T07:09:51;98066.38;;;4.81;71.80
10135;BME280;5107;48.850;8.924;2024-01-30T07:12:21;98067.63;;;4.88;70.35
10135;BME280;5107;48.850;8.924;2024-01-30T07:14:47;98069.22;;;4.90;70.09
10135;BME280;5107;48.850;8.924;2024-01-30T07:17:12;98062.78;;;5.09;69.96
10135;BME280;5107;48.850;8.924;2024-01-30T07:19:38;98063.09;;;5.29;69.05
10135;BME280;5107;48.850;8.924;2024-01-30T07:22:03;98059.78;;;5.40;67.82
10135;BME280;5107;48.850;8.924;2024-01-30T07:24:29;98060.50;;;5.42;66.68
10135;BME280;5107;48.850;8.924;2024-01-30T07:26:54;98062.72;;;5.36;66.85
10135;BME280;5107;48.850;8.924;2024-01-30T07:29:20;98055.41;;;5.41;66.72
10135;BME280;5107;48.850;8.924;2024-01-30T07:31:45;98059.16;;;5.49;66.82
10135;BME280;5107;48.850;8.924;2024-01-30T07:34:11;98070.13;;;5.67;66.87
10135;BME280;5107;48.850;8.924;2024-01-30T07:40:16;98065.81;;;5.79;66.50
10135;BME280;5107;48.850;8.924;2024-01-30T07:49:27;98078.19;;;6.26;63.91
10135;BME280;5107;48.850;8.924;2024-01-30T07:52:18;98079.59;;;6.42;63.33
10135;BME280;5107;48.850;8.924;2024-01-30T07:55:03;98075.88;;;6.34;62.67
10135;BME280;5107;48.850;8.924;2024-01-30T08:49:23;98086.00;;;8.23;57.46
10135;BME280;5107;48.850;8.924;2024-01-30T08:52:15;98089.19;;;8.60;56.55
10135;BME280;5107;48.850;8.924;2024-01-30T09:02:07;98093.31;;;9.05;55.70
10135;BME280;5107;48.850;8.924;2024-01-30T09:22:22;98097.13;;;9.75;54.36
10135;BME280;5107;48.850;8.924;2024-01-30T09:26:04;98097.53;;;9.80;54.75
10135;BME280;5107;48.850;8.924;2024-01-30T09:43:01;98092.84;;;10.35;52.63
10135;BME280;5107;48.850;8.924;2024-01-30T10:17:18;98122.63;;;10.94;52.59
10135;BME280;5107;48.850;8.924;2024-01-30T10:30:12;98103.22;;;11.34;51.87
10135;BME280;5107;48.850;8.924;2024-01-30T10:33:23;98113.91;;;11.42;51.51
10135;BME280;5107;48.850;8.924;2024-01-30T11:00:25;98094.34;;;11.54;51.05
10135;BME280;5107;48.850;8.924;2024-01-30T11:27:30;98092.00;;;11.98;50.64
10135;BME280;5107;48.850;8.924;2024-01-30T11:40:14;98088.75;;;11.76;51.49
10135;BME280;5107;48.850;8.924;2024-01-30T12:00:28;98073.63;;;12.43;50.80
10135;BME280;5107;48.850;8.924;2024-01-30T12:26:47;98039.56;;;14.32;46.03
10135;BME280;5107;48.850;8.924;2024-01-30T12:40:19;98038.91;;;14.72;45.25
10135;BME280;5107;48.850;8.924;2024-01-30T12:43:22;98043.41;;;14.88;44.83
10135;BME280;5107;48.850;8.924;2024-01-30T12:46:32;98045.84;;;14.73;44.71
10135;BME280;5107;48.850;8.924;2024-01-30T12:49:05;98044.09;;;15.30;43.90
10135;BME280;5107;48.850;8.924;2024-01-30T12:55:00;98049.47;;;16.41;41.62
10135;BME280;5107;48.850;8.924;2024-01-30T13:04:29;98037.84;;;17.26;39.92
10135;BME280;5107;48.850;8.924;2024-01-30T13:06:55;98046.06;;;17.77;39.89
10135;BME280;5107;48.850;8.924;2024-01-30T13:09:22;98041.84;;;17.82;39.35
10135;BME280;5107;48.850;8.924;2024-01-30T13:11:59;98035.78;;;18.18;39.20
10135;BME280;5107;48.850;8.924;2024-01-30T13:14:27;98033.75;;;18.64;38.71
10135;BME280;5107;48.850;8.924;2024-01-30T13:16:56;98035.66;;;18.70;38.06
10135;BME280;5107;48.850;8.924;2024-01-30T13:19:28;98033.16;;;18.69;37.80
10135;BME280;5107;48.850;8.924;2024-01-30T13:22:15;98029.00;;;18.81;37.01
10135;BME280;5107;48.850;8.924;2024-01-30T13:24:40;98024.91;;;18.64;37.36
10135;BME280;5107;48.850;8.924;2024-01-30T13:30:08;98021.34;;;17.83;39.24
10135;BME280;5107;48.850;8.924;2024-01-30T13:32:48;98023.69;;;17.49;40.26
10135;BME280;5107;48.850;8.924;2024-01-30T13:35:17;98021.28;;;17.16;41.10
10135;BME280;5107;48.850;8.924;2024-01-30T13:37:53;98024.94;;;16.69;42.04
10135;BME280;5107;48.850;8.924;2024-01-30T13:40:18;98035.56;;;16.39;42.35
10135;BME280;5107;48.850;8.924;2024-01-30T13:42:43;98041.03;;;15.98;42.93
10135;BME280;5107;48.850;8.924;2024-01-30T13:45:09;98038.78;;;15.63;44.16
10135;BME280;5107;48.850;8.924;2024-01-30T13:47:37;98043.59;;;15.35;45.38
10135;BME280;5107;48.850;8.924;2024-01-30T13:50:05;98041.75;;;15.19;45.92
10135;BME280;5107;48.850;8.924;2024-01-30T13:52:31;98040.09;;;15.02;46.03
10135;BME280;5107;48.850;8.924;2024-01-30T13:54:56;98037.94;;;14.81;47.82
10135;BME280;5107;48.850;8.924;2024-01-30T13:57:22;98038.72;;;14.73;48.58
10135;BME280;5107;48.850;8.924;2024-01-30T13:59:47;98035.91;;;14.67;48.94
10135;BME280;5107;48.850;8.924;2024-01-30T14:02:12;98032.41;;;14.66;49.25
10135;BME280;5107;48.850;8.924;2024-01-30T14:04:37;98033.41;;;14.65;48.43
10135;BME280;5107;48.850;8.924;2024-01-30T14:07:04;98034.88;;;14.52;49.07
10135;BME280;5107;48.850;8.924;2024-01-30T14:09:35;98038.88;;;14.56;48.59
10135;BME280;5107;48.850;8.924;2024-01-30T14:12:00;98041.00;;;14.52;49.21
10135;BME280;5107;48.850;8.924;2024-01-30T14:14:26;98039.00;;;14.46;49.60
10135;BME280;5107;48.850;8.924;2024-01-30T14:16:51;98052.03;;;14.39;49.78
10135;BME280;5107;48.850;8.924;2024-01-30T14:19:16;98048.31;;;14.24;50.50
10135;BME280;5107;48.850;8.924;2024-01-30T14:21:42;98043.13;;;14.15;51.04
10135;BME280;5107;48.850;8.924;2024-01-30T14:24:07;98050.91;;;14.16;51.39
10135;BME280;5107;48.850;8.924;2024-01-30T14:26:33;98051.44;;;14.20;50.77
10135;BME280;5107;48.850;8.924;2024-01-30T14:28:58;98047.13;;;14.19;50.12
10135;BME280;5107;48.850;8.924;2024-01-30T14:31:23;98057.38;;;14.14;50.45
10135;BME280;5107;48.850;8.924;2024-01-30T14:33:49;98055.88;;;14.11;49.90
10135;BME280;5107;48.850;8.924;2024-01-30T14:36:15;98066.78;;;14.08;50.02
10135;BME280;5107;48.850;8.924;2024-01-30T14:38:40;98078.94;;;13.93;50.80
10135;BME280;5107;48.850;8.924;2024-01-30T14:41:05;98074.88;;;14.06;50.54
10135;BME280;5107;48.850;8.924;2024-01-30T14:43:31;98078.59;;;13.88;50.78
10135;BME280;5107;48.850;8.924;2024-01-30T14:45:56;98081.19;;;13.80;50.79
10135;BME280;5107;48.850;8.924;2024-01-30T14:48:22;98075.09;;;13.61;52.09
10135;BME280;5107;48.850;8.924;2024-01-30T14:50:47;98072.13;;;13.39;51.15
10135;BME280;5107;48.850;8.924;2024-01-30T14:53:13;98073.81;;;13.22;51.91
10135;BME280;5107;48.850;8.924;2024-01-30T14:55:38;98078.47;;;13.10;52.38
10135;BME280;5107;48.850;8.924;2024-01-30T14:58:03;98071.97;;;13.05;52.45
10135;BME280;5107;48.850;8.924;2024-01-30T15:00:29;98079.66;;;12.98;52.17
10135;BME280;5107;48.850;8.924;2024-01-30T15:02:54;98074.69;;;12.95;52.34
10135;BME280;5107;48.850;8.924;2024-01-30T15:05:19;98075.44;;;12.87;51.95
10135;BME280;5107;48.850;8.924;2024-01-30T15:07:45;98075.28;;;12.71;52.69
10135;BME280;5107;48.850;8.924;2024-01-30T15:10:10;98081.44;;;12.62;51.80
10135;BME280;5107;48.850;8.924;2024-01-30T15:12:39;98084.88;;;12.45;52.11
10135;BME280;5107;48.850;8.924;2024-01-30T15:15:07;98081.34;;;12.27;52.34
10135;BME280;5107;48.850;8.924;2024-01-30T15:17:32;98083.66;;;12.12;53.20
10135;BME280;5107;48.850;8.924;2024-01-30T15:19:58;98081.19;;;12.01;54.24
10135;BME280;5107;48.850;8.924;2024-01-30T15:22:25;98090.41;;;11.87;54.54
10135;BME280;5107;48.850;8.924;2024-01-30T15:24:50;98092.38;;;11.75;54.97
10135;BME280;5107;48.850;8.924;2024-01-30T15:27:16;98087.53;;;11.52;55.47
10135;BME280;5107;48.850;8.924;2024-01-30T15:29:41;98084.47;;;11.47;55.68
10135;BME280;5107;48.850;8.924;2024-01-30T15:32:06;98084.63;;;11.55;55.03
10135;BME280;5107;48.850;8.924;2024-01-30T15:34:32;98092.09;;;11.40;55.15
10135;BME280;5107;48.850;8.924;2024-01-30T15:36:57;98086.00;;;11.39;55.14
10135;BME280;5107;48.850;8.924;2024-01-30T15:39:23;98093.50;;;11.25;55.71
10135;BME280;5107;48.850;8.924;2024-01-30T15:41:48;98094.66;;;11.13;56.40
10135;BME280;5107;48.850;8.924;2024-01-30T15:44:13;98104.59;;;10.99;56.67
10135;BME280;5107;48.850;8.924;2024-01-30T15:46:39;98107.38;;;10.98;57.55
10135;BME280;5107;48.850;8.924;2024-01-30T15:49:04;98103.34;;;10.94;57.55
10135;BME280;5107;48.850;8.924;2024-01-30T15:51:30;98105.16;;;10.84;57.51
10135;BME280;5107;48.850;8.924;2024-01-30T15:53:55;98111.38;;;10.92;57.71
10135;BME280;5107;48.850;8.924;2024-01-30T15:56:20;98117.22;;;11.44;56.18
10135;BME280;5107;48.850;8.924;2024-01-30T15:58:46;98124.56;;;11.31;56.22
10135;BME280;5107;48.850;8.924;2024-01-30T16:01:15;98121.25;;;11.19;56.91
10135;BME280;5107;48.850;8.924;2024-01-30T16:03:41;98125.97;;;11.25;56.95
10135;BME280;5107;48.850;8.924;2024-01-30T16:06:07;98115.16;;;11.09;57.54
10135;BME280;5107;48.850;8.924;2024-01-30T16:08:32;98112.34;;;10.91;57.87
10135;BME280;5107;48.850;8.924;2024-01-30T16:10:57;98116.78;;;10.81;58.87
10135;BME280;5107;48.850;8.924;2024-01-30T16:13:23;98117.03;;;10.69;58.95
10135;BME280;5107;48.850;8.924;2024-01-30T16:15:48;98119.09;;;10.65;59.34
10135;BME280;5107;48.850;8.924;2024-01-30T16:18:13;98114.47;;;10.48;59.66
10135;BME280;5107;48.850;8.924;2024-01-30T16:20:39;98122.22;;;10.40;60.45
10135;BME280;5107;48.850;8.924;2024-01-30T16:23:04;98120.00;;;10.35;60.82
10135;BME280;5107;48.850;8.924;2024-01-30T16:25:29;98127.31;;;10.32;61.58
10135;BME280;5107;48.850;8.924;2024-01-30T16:27:55;98131.31;;;10.26;62.35
10135;BME280;5107;48.850;8.924;2024-01-30T16:30:20;98131.69;;;10.21;62.26
10135;BME280;5107;48.850;8.924;2024-01-30T16:32:45;98134.47;;;10.20;62.57
10135;BME280;5107;48.850;8.924;2024-01-30T16:35:11;98137.56;;;10.14;62.42
10135;BME280;5107;48.850;8.924;2024-01-30T16:37:36;98133.16;;;10.14;62.48
10135;BME280;5107;48.850;8.924;2024-01-30T16:40:02;98138.41;;;10.14;62.47
10135;BME280;5107;48.850;8.924;2024-01-30T16:42:28;98130.81;;;10.11;61.90
10135;BME280;5107;48.850;8.924;2024-01-30T16:44:53;98141.44;;;10.10;61.82
10135;BME280;5107;48.850;8.924;2024-01-30T16:47:18;98138.50;;;10.03;60.90
10135;BME280;5107;48.850;8.924;2024-01-30T16:49:44;98136.97;;;10.01;60.60
10135;BME280;5107;48.850;8.924;2024-01-30T16:52:10;98138.28;;;9.85;60.87
10135;BME280;5107;48.850;8.924;2024-01-30T16:54:35;98139.53;;;9.91;60.97
10135;BME280;5107;48.850;8.924;2024-01-30T16:57:00;98144.44;;;9.96;60.50
10135;BME280;5107;48.850;8.924;2024-01-30T16:59:27;98141.94;;;9.94;61.20
10135;BME280;5107;48.850;8.924;2024-01-30T17:01:52;98149.53;;;9.97;61.58
10135;BME280;5107;48.850;8.924;2024-01-30T17:04:18;98149.09;;;9.92;61.84
10135;BME280;5107;48.850;8.924;2024-01-30T17:06:50;98147.69;;;9.88;61.86
10135;BME280;5107;48.850;8.924;2024-01-30T17:09:17;98150.06;;;9.91;62.26
10135;BME280;5107;48.850;8.924;2024-01-30T17:11:42;98149.34;;;9.89;62.83
10135;BME280;5107;48.850;8.924;2024-01-30T17:14:08;98156.47;;;9.98;63.44
10135;BME280;5107;48.850;8.924;2024-01-30T17:16:34;98150.50;;;9.96;63.81
10135;BME280;5107;48.850;8.924;2024-01-30T17:18:59;98163.41;;;9.78;63.93
10135;BME280;5107;48.850;8.924;2024-01-30T17:21:24;98168.84;;;9.66;64.34
10135;BME280;5107;48.850;8.924;2024-01-30T17:23:50;98160.00;;;9.67;64.48
10135;BME280;5107;48.850;8.924;2024-01-30T17:26:15;98171.47;;;9.66;63.93
10135;BME280;5107;48.850;8.924;2024-01-30T17:28:41;98171.44;;;9.77;63.06
10135;BME280;5107;48.850;8.924;2024-01-30T17:31:07;98176.50;;;9.69;63.12
10135;BME280;5107;48.850;8.924;2024-01-30T17:33:33;98174.34;;;9.63;63.27
10135;BME280;5107;48.850;8.924;2024-01-30T17:35:58;98182.97;;;9.85;62.23
10135;BME280;5107;48.850;8.924;2024-01-30T17:38:23;98181.53;;;10.23;60.69
10135;BME280;5107;48.850;8.924;2024-01-30T17:40:49;98188.78;;;10.10;60.63
10135;BME280;5107;48.850;8.924;2024-01-30T17:43:16;98200.63;;;10.04;61.27
10135;BME280;5107;48.850;8.924;2024-01-30T17:45:42;98191.09;;;9.82;61.52
10135;BME280;5107;48.850;8.924;2024-01-30T17:48:07;98202.66;;;9.70;62.65
10135;BME280;5107;48.850;8.924;2024-01-30T17:50:32;98199.06;;;9.92;62.07
10135;BME280;5107;48.850;8.924;2024-01-30T17:52:58;98195.38;;;9.63;62.98
10135;BME280;5107;48.850;8.924;2024-01-30T17:55:23;98193.56;;;9.42;64.25
10135;BME280;5107;48.850;8.924;2024-01-30T17:57:49;98197.38;;;9.38;64.84
10135;BME280;5107;48.850;8.924;2024-01-30T18:00:14;98194.00;;;9.27;65.35
10135;BME280;5107;48.850;8.924;2024-01-30T18:02:41;98196.72;;;9.25;65.59
10135;BME280;5107;48.850;8.924;2024-01-30T18:05:07;98200.09;;;9.16;65.95
10135;BME280;5107;48.850;8.924;2024-01-30T18:07:34;98196.06;;;9.12;66.54
10135;BME280;5107;48.850;8.924;2024-01-30T18:10:00;98203.59;;;9.37;65.68
10135;BME280;5107;48.850;8.924;2024-01-30T18:12:25;98205.75;;;9.64;65.21
10135;BME280;5107;48.850;8.924;2024-01-30T18:14:53;98213.41;;;9.88;64.29
10135;BME280;5107;48.850;8.924;2024-01-30T18:17:18;98209.81;;;9.89;64.05
10135;BME280;5107;48.850;8.924;2024-01-30T18:19:44;98216.81;;;9.79;64.84
10135;BME280;5107;48.850;8.924;2024-01-30T18:22:09;98213.03;;;9.93;64.19
10135;BME280;5107;48.850;8.924;2024-01-30T18:24:35;98215.19;;;10.19;63.06
10135;BME280;5107;48.850;8.924;2024-01-30T18:27:00;98208.31;;;10.28;62.40
10135;BME280;5107;48.850;8.924;2024-01-30T18:29:26;98224.19;;;10.06;63.55
10135;BME280;5107;48.850;8.924;2024-01-30T18:31:51;98224.00;;;9.77;64.67
10135;BME280;5107;48.850;8.924;2024-01-30T18:34:16;98220.75;;;9.52;65.77
10135;BME280;5107;48.850;8.924;2024-01-30T18:36:42;98224.66;;;9.26;66.76
10135;BME280;5107;48.850;8.924;2024-01-30T18:39:08;98227.19;;;9.60;65.43
10135;BME280;5107;48.850;8.924;2024-01-30T18:41:35;98215.44;;;9.43;66.31
10135;BME280;5107;48.850;8.924;2024-01-30T18:44:00;98224.66;;;9.58;66.01
10135;BME280;5107;48.850;8.924;2024-01-30T18:46:27;98216.88;;;9.36;66.18
10135;BME280;5107;48.850;8.924;2024-01-30T18:48:53;98222.16;;;9.25;66.67
10135;BME280;5107;48.850;8.924;2024-01-30T18:51:19;98217.22;;;9.42;66.03
10135;BME280;5107;48.850;8.924;2024-01-30T18:53:44;98215.91;;;9.69;64.51
10135;BME280;5107;48.850;8.924;2024-01-30T18:56:11;98215.41;;;9.75;65.19